Strona główna
METAR-TAF:

METAR-TAF

Lotnisko :

Port lotniczy Sibu

Sibu, Malezja

Szerokość geograficzna: 02-20N, Długość geograficzna: 111-50E, wysokość: 8 m

Aktualna obserwacja pogody

Raport powstał 27 minut temu, godzina 08:00 UTC
Wiatr 4 kt od północ, zmienny między północny zachód i północny wschód
Temperatura 31°C
Wilgotność 75%
Ciśnienie 1009 hPa
Widzialność 10 km lub więcej
Rozproszone chmury na wysokości 1800 ft
Przerywane chmury na wysokości 15000 ft

METAR: WBGS 220800Z 35004KT 320V040 9999 SCT018 BKN150 31/26 Q1009

czas: 16:27 (08:27 UTC)

Prognoza

Raport powstał 3 godziny i 27 minut temu, godzina 05:00 UTC
Prognoza ważna od 22 godzina 06 UTC do 23 godzina 06 UTC
Wiatr 6 kt od północ
Widzialność 10 km lub więcej
Rozproszone chmury na wysokości 1800 ft

TAF: WBGS 220500Z 2206/2306 36006KT 9999 SCT018

Obserwacja i prognoza pogody dla ponad 4000 lotnisk (raport METAR i TAF).

Dostępne stacje oznaczono żółtymi i czerwonymi punktami na mapie.

Najedź kursorem aby zobaczyć nazwę stacji.

Kliknij aby zobaczyć obserwacje i prognozy pogody.

Aby zmienić mapę: kliknij na zielony przycisk z czarnym krzyżykiem, aby powiększyć; na zielony przycisk z myślnikiem, aby pomniejszyć; na zielone strzałki, aby przejść do map sąsiednich.


METAR-TAF: